Time;durP1;ratioP1;P1;durP2;ratioP2;P2;SDS_P1;SDS_P2;PMS_P1;PMS_P2;Temp;Humidity;BMP_temperature;BMP_pressure;BME280_temperature;BME280_humidity;BME280_pressure;Samples;Min_cycle;Max_cycle;Signal;HPM_P1;HPM_P2
2021/10/26 00:00:03;;;;;;;;;;;23.40;47.00;;;;;;1488572;79;824;-58
2021/10/26 00:02:05;;;;;;;;;;;23.40;47.10;;;;;;1486947;79;726;-59
2021/10/26 00:04:07;;;;;;;;;;;23.30;47.10;;;;;;1489359;80;729;-60
2021/10/26 00:06:09;;;;;;;;;;;23.30;47.10;;;;;;1485337;79;1133;-60
2021/10/26 00:08:11;;;;;;;;;;;23.40;47.10;;;;;;1489110;79;694;-61
2021/10/26 00:10:13;;;;;;;;;;;23.30;47.20;;;;;;1490661;79;747;-59
2021/10/26 00:12:15;;;;;;;;;;;23.40;47.10;;;;;;1484847;79;923;-59
2021/10/26 00:14:17;;;;;;;;;;;23.50;47.30;;;;;;1489696;79;812;-60
2021/10/26 00:16:19;;;;;;;;;;;23.30;47.10;;;;;;1489530;79;1966;-59
2021/10/26 00:18:21;;;;;;;;;;;23.30;47.10;;;;;;1491180;78;718;-61
2021/10/26 00:20:23;;;;;;;;;;;23.30;47.10;;;;;;1488576;79;766;-60
2021/10/26 00:22:24;;;;;;;;;;;23.30;47.30;;;;;;1489218;79;729;-60
2021/10/26 00:24:27;;;;;;;;;;;23.30;47.20;;;;;;1489170;79;1120;-60
2021/10/26 00:26:29;;;;;;;;;;;23.30;47.20;;;;;;1492381;79;766;-60
2021/10/26 00:28:32;;;;;;;;;;;23.40;47.20;;;;;;1487638;78;834;-59
2021/10/26 00:30:33;;;;;;;;;;;23.40;47.20;;;;;;1489670;80;827;-60
2021/10/26 00:32:35;;;;;;;;;;;23.30;47.30;;;;;;1486670;79;838;-59
2021/10/26 00:34:37;;;;;;;;;;;23.30;47.30;;;;;;1486840;79;1117;-61
2021/10/26 00:36:39;;;;;;;;;;;23.30;47.30;;;;;;1487663;79;1942;-59
2021/10/26 00:38:41;;;;;;;;;;;23.30;47.20;;;;;;1488505;79;893;-60
2021/10/26 00:40:44;;;;;;;;;;;23.50;47.30;;;;;;1490754;79;642;-59
2021/10/26 00:42:45;;;;;;;;;;;23.30;47.20;;;;;;1489270;79;744;-61
2021/10/26 00:44:47;;;;;;;;;;;23.30;47.20;;;;;;1492851;79;1106;-59
2021/10/26 00:46:49;;;;;;;;;;;23.40;47.30;;;;;;1491130;79;802;-60
2021/10/26 00:48:51;;;;;;;;;;;23.30;47.30;;;;;;1490100;79;810;-59
2021/10/26 00:50:53;;;;;;;;;;;23.40;47.30;;;;;;1484311;79;778;-59
2021/10/26 00:52:55;;;;;;;;;;;23.30;47.30;;;;;;1487479;79;873;-59
2021/10/26 00:54:59;;;;;;;;;;;23.30;47.30;;;;;;1488558;79;1144;-59
2021/10/26 00:57:00;;;;;;;;;;;23.30;47.30;;;;;;1488713;79;1911;-59
2021/10/26 00:59:02;;;;;;;;;;;23.30;47.40;;;;;;1485785;79;928;-60
2021/10/26 01:01:04;;;;;;;;;;;23.40;47.30;;;;;;1486895;79;729;-60
2021/10/26 01:03:06;;;;;;;;;;;23.30;47.40;;;;;;1487257;79;713;-59
2021/10/26 01:05:08;;;;;;;;;;;23.30;47.30;;;;;;1490206;79;1171;-59
2021/10/26 01:07:10;;;;;;;;;;;23.30;47.30;;;;;;1488407;79;789;-61
2021/10/26 01:09:12;;;;;;;;;;;23.30;47.30;;;;;;1488826;78;781;-59
2021/10/26 01:11:14;;;;;;;;;;;23.50;47.50;;;;;;1487178;79;636;-59
2021/10/26 01:13:15;;;;;;;;;;;23.30;47.40;;;;;;1487155;79;765;-60
2021/10/26 01:15:17;;;;;;;;;;;23.30;47.50;;;;;;1478647;79;1144;-59
2021/10/26 01:17:19;;;;;;;;;;;23.40;47.60;;;;;;1475737;79;1952;-60
2021/10/26 01:19:21;;;;;;;;;;;23.30;47.60;;;;;;1454563;79;1188;-59
2021/10/26 01:21:23;;;;;;;;;;;23.40;47.60;;;;;;1488098;79;733;-58
2021/10/26 01:23:26;;;;;;;;;;;23.30;47.60;;;;;;1489862;79;777;-59
2021/10/26 01:25:28;;;;;;;;;;;23.40;47.70;;;;;;1489605;78;1221;-60
2021/10/26 01:27:30;;;;;;;;;;;23.40;47.60;;;;;;1483405;79;845;-58
2021/10/26 01:29:32;;;;;;;;;;;23.40;47.60;;;;;;1486551;79;732;-57
2021/10/26 01:31:34;;;;;;;;;;;23.40;47.60;;;;;;1490091;80;802;-57
2021/10/26 01:33:36;;;;;;;;;;;23.30;47.60;;;;;;1484728;79;802;-60
2021/10/26 01:35:38;;;;;;;;;;;23.40;47.70;;;;;;1489803;79;1160;-58
2021/10/26 01:37:40;;;;;;;;;;;23.40;47.70;;;;;;1486322;79;1922;-58
2021/10/26 01:39:42;;;;;;;;;;;23.40;47.80;;;;;;1487711;78;726;-59
2021/10/26 01:41:44;;;;;;;;;;;23.40;47.70;;;;;;1489820;78;851;-58
2021/10/26 01:43:46;;;;;;;;;;;23.40;47.80;;;;;;1481863;80;742;-59
2021/10/26 01:45:49;;;;;;;;;;;23.40;47.70;;;;;;1485791;80;1097;-59
2021/10/26 01:47:51;;;;;;;;;;;23.50;47.80;;;;;;1497022;78;826;-60
2021/10/26 01:49:53;;;;;;;;;;;23.50;47.80;;;;;;1486290;80;717;-60
2021/10/26 01:51:54;;;;;;;;;;;23.50;47.70;;;;;;1483749;79;678;-60
2021/10/26 01:53:57;;;;;;;;;;;23.40;47.50;;;;;;1478676;79;712;-60
2021/10/26 01:55:59;;;;;;;;;;;23.40;47.50;;;;;;1490402;79;1126;-61
2021/10/26 01:58:01;;;;;;;;;;;23.40;47.50;;;;;;1486487;79;1938;-60
2021/10/26 02:00:09;;;;;;;;;;;23.40;47.60;;;;;;1488342;79;792;-57
2021/10/26 02:02:11;;;;;;;;;;;23.40;47.50;;;;;;1487548;79;693;-59
2021/10/26 02:04:13;;;;;;;;;;;23.40;47.40;;;;;;1485240;79;752;-59
2021/10/26 02:06:15;;;;;;;;;;;23.30;47.50;;;;;;1477638;79;1114;-56
2021/10/26 02:08:17;;;;;;;;;;;23.30;47.50;;;;;;1489140;79;715;-60
2021/10/26 02:10:20;;;;;;;;;;;23.30;47.60;;;;;;1486837;79;769;-61
2021/10/26 02:12:22;;;;;;;;;;;23.30;47.60;;;;;;1499843;72;2132;-57
2021/10/26 02:14:24;;;;;;;;;;;23.40;47.60;;;;;;1583634;74;681;-57
2021/10/26 02:16:26;;;;;;;;;;;23.40;47.60;;;;;;1555271;74;764;-56
2021/10/26 02:18:28;;;;;;;;;;;23.30;47.60;;;;;;1564221;74;1948;-56
2021/10/26 02:20:30;;;;;;;;;;;23.30;47.60;;;;;;1563022;74;707;-56
2021/10/26 02:22:32;;;;;;;;;;;23.30;47.60;;;;;;1556371;74;808;-54
2021/10/26 02:24:34;;;;;;;;;;;23.30;47.60;;;;;;1565286;74;1258;-56
2021/10/26 02:26:36;;;;;;;;;;;23.30;47.60;;;;;;1564243;74;707;-56
2021/10/26 02:28:38;;;;;;;;;;;23.30;47.60;;;;;;1568469;74;672;-56
2021/10/26 02:30:41;;;;;;;;;;;23.30;47.60;;;;;;1570419;74;734;-55
2021/10/26 02:32:43;;;;;;;;;;;23.30;47.60;;;;;;1575185;74;740;-53
2021/10/26 02:34:45;;;;;;;;;;;23.30;47.60;;;;;;1570857;74;1140;-56
2021/10/26 02:36:47;;;;;;;;;;;23.30;47.60;;;;;;1567500;74;1916;-57
2021/10/26 02:38:50;;;;;;;;;;;23.30;47.70;;;;;;1570626;74;734;-58
2021/10/26 02:40:52;;;;;;;;;;;23.30;47.60;;;;;;1569376;74;687;-53
2021/10/26 02:42:54;;;;;;;;;;;23.30;47.60;;;;;;1573370;74;773;-54
2021/10/26 02:44:56;;;;;;;;;;;23.40;47.70;;;;;;1565437;74;1118;-57
2021/10/26 02:46:58;;;;;;;;;;;23.40;47.60;;;;;;1557874;74;728;-56
2021/10/26 02:49:00;;;;;;;;;;;23.40;47.70;;;;;;1563790;74;735;-56
2021/10/26 02:51:02;;;;;;;;;;;23.40;47.60;;;;;;1567258;74;719;-57
2021/10/26 02:53:04;;;;;;;;;;;23.50;47.80;;;;;;1568308;74;1048;-57
2021/10/26 02:55:06;;;;;;;;;;;23.50;47.70;;;;;;1573118;74;1185;-53
2021/10/26 02:57:08;;;;;;;;;;;23.50;47.50;;;;;;1570387;74;1939;-55
2021/10/26 02:59:10;;;;;;;;;;;23.70;47.50;;;;;;1568385;74;683;-54
2021/10/26 03:01:12;;;;;;;;;;;23.70;47.40;;;;;;1560039;74;779;-51
2021/10/26 03:03:14;;;;;;;;;;;23.60;47.20;;;;;;1562840;74;783;-55
2021/10/26 03:05:16;;;;;;;;;;;23.70;47.20;;;;;;1561672;74;1070;-52
2021/10/26 03:07:18;;;;;;;;;;;23.80;47.10;;;;;;1568506;74;727;-55
2021/10/26 03:09:20;;;;;;;;;;;23.90;47.00;;;;;;1568446;74;749;-55
2021/10/26 03:11:22;;;;;;;;;;;23.90;46.90;;;;;;1567444;74;699;-54
2021/10/26 03:13:23;;;;;;;;;;;23.90;46.80;;;;;;1565512;74;780;-53
2021/10/26 03:15:25;;;;;;;;;;;24.00;46.70;;;;;;1565699;74;1181;-54
2021/10/26 03:17:27;;;;;;;;;;;23.90;46.60;;;;;;1554262;74;1930;-54
2021/10/26 03:19:29;;;;;;;;;;;23.90;46.60;;;;;;1562712;74;958;-54
2021/10/26 03:21:32;;;;;;;;;;;24.00;46.50;;;;;;1562922;74;793;-53
2021/10/26 03:23:34;;;;;;;;;;;24.00;46.40;;;;;;1565831;74;742;-56
2021/10/26 03:25:36;;;;;;;;;;;24.00;46.20;;;;;;1560883;74;1119;-56
2021/10/26 03:27:38;;;;;;;;;;;24.10;46.30;;;;;;1560561;74;786;-54
2021/10/26 03:29:40;;;;;;;;;;;24.20;46.10;;;;;;1557987;74;592;-54
2021/10/26 03:31:42;;;;;;;;;;;24.20;46.20;;;;;;1565734;74;760;-53
2021/10/26 03:33:44;;;;;;;;;;;24.10;46.30;;;;;;1567643;74;602;-55
2021/10/26 03:35:46;;;;;;;;;;;24.00;46.20;;;;;;1565119;74;1138;-53
2021/10/26 03:37:48;;;;;;;;;;;24.00;46.30;;;;;;1575186;74;1908;-52
2021/10/26 03:39:55;;;;;;;;;;;24.00;46.30;;;;;;1562863;74;711;-53
2021/10/26 03:41:53;;;;;;;;;;;24.00;46.40;;;;;;1550736;74;1640;-55
2021/10/26 03:43:55;;;;;;;;;;;23.90;46.40;;;;;;1565305;74;774;-53
2021/10/26 03:45:57;;;;;;;;;;;23.90;46.40;;;;;;1566642;74;1129;-55
2021/10/26 03:47:59;;;;;;;;;;;23.80;46.50;;;;;;1565144;74;757;-55
2021/10/26 03:50:01;;;;;;;;;;;23.80;46.50;;;;;;1565648;74;754;-56
2021/10/26 03:52:03;;;;;;;;;;;23.70;46.50;;;;;;1565170;74;717;-54
2021/10/26 03:54:05;;;;;;;;;;;23.80;46.60;;;;;;1562919;74;801;-55
2021/10/26 03:56:08;;;;;;;;;;;23.80;46.60;;;;;;1554062;74;1171;-53
2021/10/26 03:58:09;;;;;;;;;;;23.70;46.80;;;;;;1567346;74;1903;-53
2021/10/26 04:00:12;;;;;;;;;;;23.70;46.80;;;;;;1564218;74;703;-53
2021/10/26 04:02:24;;;;;;;;;;;23.60;46.80;;;;;;1565932;74;686;-55
2021/10/26 04:04:23;;;;;;;;;;;23.60;46.80;;;;;;1559979;74;1169;-55
2021/10/26 04:06:27;;;;;;;;;;;23.50;46.90;;;;;;1556393;74;1118;-54
2021/10/26 04:10:46;;;;;;;;;;;23.60;47.10;;;;;;1555964;74;828;-55
2021/10/26 04:12:36;;;;;;;;;;;23.60;47.10;;;;;;1570581;74;1561;-55
2021/10/26 04:14:37;;;;;;;;;;;23.60;47.10;;;;;;1556920;74;1151;-55
2021/10/26 04:16:40;;;;;;;;;;;23.60;47.20;;;;;;1559595;74;1092;-56
2021/10/26 04:18:41;;;;;;;;;;;23.60;47.10;;;;;;1562787;74;1901;-55
2021/10/26 04:20:43;;;;;;;;;;;23.50;47.20;;;;;;1554070;74;689;-55
2021/10/26 04:22:45;;;;;;;;;;;23.50;47.20;;;;;;1564271;74;619;-55
2021/10/26 04:24:47;;;;;;;;;;;23.60;47.30;;;;;;1546483;74;1177;-55
2021/10/26 04:26:49;;;;;;;;;;;23.50;47.30;;;;;;1569147;74;736;-55
2021/10/26 04:28:51;;;;;;;;;;;23.50;47.30;;;;;;1568794;74;749;-55
2021/10/26 04:30:53;;;;;;;;;;;23.50;47.30;;;;;;1565613;74;787;-55
2021/10/26 04:32:55;;;;;;;;;;;23.50;47.50;;;;;;1550076;74;731;-54
2021/10/26 04:34:57;;;;;;;;;;;23.40;47.40;;;;;;1564323;74;1134;-55
2021/10/26 04:36:59;;;;;;;;;;;23.50;47.50;;;;;;1566243;74;691;-54
2021/10/26 04:39:01;;;;;;;;;;;23.50;47.50;;;;;;1550903;74;1936;-54
2021/10/26 04:41:07;;;;;;;;;;;23.50;47.40;;;;;;1564180;74;701;-55
2021/10/26 04:43:06;;;;;;;;;;;23.50;47.40;;;;;;1559962;74;1179;-55
2021/10/26 04:45:08;;;;;;;;;;;23.50;47.50;;;;;;1564509;74;1090;-55
2021/10/26 04:47:10;;;;;;;;;;;23.50;47.50;;;;;;1557183;74;742;-55
2021/10/26 04:49:12;;;;;;;;;;;23.40;47.40;;;;;;1562977;74;718;-55
2021/10/26 04:51:14;;;;;;;;;;;23.50;47.50;;;;;;1564651;74;749;-55
2021/10/26 04:53:16;;;;;;;;;;;23.50;47.60;;;;;;1564011;74;717;-55
2021/10/26 04:55:17;;;;;;;;;;;23.50;47.50;;;;;;1564700;74;1178;-55
2021/10/26 04:57:19;;;;;;;;;;;23.50;47.60;;;;;;1567186;74;726;-55
2021/10/26 04:59:21;;;;;;;;;;;23.50;47.60;;;;;;1570984;74;1945;-55
2021/10/26 05:01:23;;;;;;;;;;;23.50;47.60;;;;;;1570992;74;772;-56
2021/10/26 05:03:27;;;;;;;;;;;23.50;47.60;;;;;;1573289;74;798;-55
2021/10/26 05:05:28;;;;;;;;;;;23.50;47.80;;;;;;1572189;74;1400;-56
2021/10/26 05:07:30;;;;;;;;;;;23.50;47.70;;;;;;1572796;74;635;-55
2021/10/26 05:09:32;;;;;;;;;;;23.50;47.80;;;;;;1571810;74;758;-55
2021/10/26 05:11:34;;;;;;;;;;;23.50;47.70;;;;;;1554311;74;699;-55
2021/10/26 05:13:36;;;;;;;;;;;23.50;47.80;;;;;;1561365;74;721;-56
2021/10/26 05:15:38;;;;;;;;;;;23.50;48.10;;;;;;1565162;74;1172;-56
2021/10/26 05:17:40;;;;;;;;;;;23.60;47.80;;;;;;1570140;74;715;-56
2021/10/26 05:19:44;;;;;;;;;;;23.70;47.80;;;;;;1564184;74;1911;-56
2021/10/26 05:21:47;;;;;;;;;;;23.70;47.50;;;;;;1559422;74;734;-57
2021/10/26 05:23:49;;;;;;;;;;;23.70;47.40;;;;;;1566157;74;747;-57
2021/10/26 05:25:51;;;;;;;;;;;23.60;47.20;;;;;;1560113;74;1144;-56
2021/10/26 05:27:53;;;;;;;;;;;23.60;47.10;;;;;;1564374;74;818;-57
2021/10/26 05:29:55;;;;;;;;;;;23.50;47.20;;;;;;1568079;74;730;-57
2021/10/26 05:31:57;;;;;;;;;;;23.50;47.10;;;;;;1555511;74;730;-56
2021/10/26 05:33:59;;;;;;;;;;;23.50;47.20;;;;;;1569005;74;804;-57
2021/10/26 05:36:01;;;;;;;;;;;23.50;47.10;;;;;;1567429;74;1138;-57
2021/10/26 05:38:03;;;;;;;;;;;23.50;47.10;;;;;;1564967;74;1932;-56
2021/10/26 05:40:05;;;;;;;;;;;23.60;47.20;;;;;;1555664;74;607;-55
2021/10/26 05:42:08;;;;;;;;;;;23.60;47.10;;;;;;1559488;74;698;-55
2021/10/26 05:44:09;;;;;;;;;;;23.60;47.10;;;;;;1565738;74;756;-57
2021/10/26 05:46:11;;;;;;;;;;;23.50;47.10;;;;;;1564418;74;1111;-55
2021/10/26 05:48:14;;;;;;;;;;;23.50;47.10;;;;;;1564193;74;731;-56
2021/10/26 05:50:16;;;;;;;;;;;23.50;47.10;;;;;;1564416;74;775;-55
2021/10/26 05:52:18;;;;;;;;;;;23.50;47.00;;;;;;1557469;74;734;-56
2021/10/26 05:54:20;;;;;;;;;;;23.50;46.90;;;;;;1550147;74;795;-56
2021/10/26 05:56:23;;;;;;;;;;;23.50;46.90;;;;;;1567796;74;1103;-55
2021/10/26 05:58:25;;;;;;;;;;;23.50;46.90;;;;;;1566734;74;1907;-55
2021/10/26 06:00:28;;;;;;;;;;;23.40;46.70;;;;;;1567136;74;857;-56
2021/10/26 06:02:32;;;;;;;;;;;23.50;46.80;;;;;;1559100;74;642;-56
2021/10/26 06:04:34;;;;;;;;;;;23.40;46.70;;;;;;1548533;74;1133;-55
2021/10/26 06:06:36;;;;;;;;;;;23.40;46.70;;;;;;1567957;74;651;-56
2021/10/26 06:08:39;;;;;;;;;;;23.40;46.70;;;;;;1565562;74;696;-56
2021/10/26 06:10:44;;;;;;;;;;;23.40;46.60;;;;;;1567462;74;725;-55
2021/10/26 06:12:51;;;;;;;;;;;23.40;46.70;;;;;;1555019;74;1676;-55
2021/10/26 06:14:48;;;;;;;;;;;23.40;46.50;;;;;;1566276;74;1529;-55
2021/10/26 06:16:49;;;;;;;;;;;23.40;45.90;;;;;;1577515;74;693;-55
2021/10/26 06:18:51;;;;;;;;;;;23.40;44.60;;;;;;1572549;74;1942;-55
2021/10/26 06:20:53;;;;;;;;;;;23.30;44.00;;;;;;1575831;74;781;-56
2021/10/26 06:22:55;;;;;;;;;;;23.30;43.70;;;;;;1577674;74;763;-55
2021/10/26 06:24:57;;;;;;;;;;;23.20;43.20;;;;;;1571112;74;1114;-55
2021/10/26 06:26:59;;;;;;;;;;;23.20;42.70;;;;;;1577242;74;677;-56
2021/10/26 06:29:01;;;;;;;;;;;23.20;42.40;;;;;;1572778;74;767;-56
2021/10/26 06:31:03;;;;;;;;;;;23.20;42.20;;;;;;1575872;74;975;-55
2021/10/26 06:33:05;;;;;;;;;;;23.20;41.80;;;;;;1547402;75;714;-55
2021/10/26 06:35:07;;;;;;;;;;;23.10;41.80;;;;;;1581718;74;1158;-56
2021/10/26 06:37:09;;;;;;;;;;;23.10;41.80;;;;;;1569475;74;796;-55
2021/10/26 06:39:11;;;;;;;;;;;23.10;42.70;;;;;;1569427;74;1938;-56
2021/10/26 06:41:13;;;;;;;;;;;23.10;43.20;;;;;;1571121;74;730;-55
2021/10/26 06:43:15;;;;;;;;;;;23.10;43.40;;;;;;1573807;74;745;-55
2021/10/26 06:45:17;;;;;;;;;;;23.10;43.60;;;;;;1572648;74;1137;-55
2021/10/26 06:47:19;;;;;;;;;;;23.10;43.70;;;;;;1572251;74;785;-55
2021/10/26 06:49:20;;;;;;;;;;;23.20;43.90;;;;;;1575440;74;722;-56
2021/10/26 06:51:22;;;;;;;;;;;23.10;43.90;;;;;;1571110;74;677;-56
2021/10/26 06:53:25;;;;;;;;;;;23.10;44.00;;;;;;1572774;74;725;-57
2021/10/26 06:55:27;;;;;;;;;;;23.10;44.10;;;;;;1568939;74;1160;-57
2021/10/26 06:57:29;;;;;;;;;;;23.10;44.20;;;;;;1572578;74;793;-56
2021/10/26 06:59:34;;;;;;;;;;;23.20;44.20;;;;;;1572555;74;1899;-57
2021/10/26 07:01:35;;;;;;;;;;;23.20;44.30;;;;;;1563937;74;1612;-57
2021/10/26 07:03:37;;;;;;;;;;;23.20;44.30;;;;;;1567112;74;794;-56
2021/10/26 07:05:39;;;;;;;;;;;23.20;44.30;;;;;;1565146;74;1141;-57
2021/10/26 07:07:41;;;;;;;;;;;23.20;44.30;;;;;;1553164;74;739;-57
2021/10/26 07:09:43;;;;;;;;;;;23.20;44.30;;;;;;1570997;74;779;-57
2021/10/26 07:11:45;;;;;;;;;;;23.30;44.50;;;;;;1570799;74;774;-57
2021/10/26 07:13:48;;;;;;;;;;;23.30;44.50;;;;;;1565633;74;797;-54
2021/10/26 07:15:50;;;;;;;;;;;23.30;44.50;;;;;;1563443;74;1146;-54
2021/10/26 07:17:52;;;;;;;;;;;23.40;44.50;;;;;;1564374;74;720;-56
2021/10/26 07:19:54;;;;;;;;;;;23.40;44.40;;;;;;1568855;74;1915;-54
2021/10/26 07:21:56;;;;;;;;;;;23.50;44.60;;;;;;1572913;74;730;-54
2021/10/26 07:23:58;;;;;;;;;;;23.40;44.40;;;;;;1561083;74;699;-54
2021/10/26 07:26:00;;;;;;;;;;;23.40;44.40;;;;;;1561279;74;1154;-55
2021/10/26 07:28:02;;;;;;;;;;;23.50;44.60;;;;;;1570608;74;738;-53
2021/10/26 07:30:05;;;;;;;;;;;23.50;44.50;;;;;;1564002;74;761;-54
2021/10/26 07:32:07;;;;;;;;;;;23.50;44.40;;;;;;1559886;74;695;-54
2021/10/26 07:34:12;;;;;;;;;;;23.50;44.40;;;;;;1567082;74;654;-53
2021/10/26 07:36:13;;;;;;;;;;;23.50;44.40;;;;;;1572903;74;1696;-56
2021/10/26 07:38:25;;;;;;;;;;;23.60;44.40;;;;;;1577366;74;721;-56
2021/10/26 07:40:18;;;;;;;;;;;23.60;44.40;;;;;;1546264;74;1932;-55
2021/10/26 07:42:20;;;;;;;;;;;23.50;44.30;;;;;;1562126;74;719;-55
2021/10/26 07:44:23;;;;;;;;;;;23.60;44.30;;;;;;1563091;74;714;-55
2021/10/26 07:46:24;;;;;;;;;;;23.60;44.30;;;;;;1567379;74;1159;-56
2021/10/26 07:48:27;;;;;;;;;;;23.60;44.20;;;;;;1566716;74;778;-55
2021/10/26 07:50:29;;;;;;;;;;;23.70;44.30;;;;;;1561589;74;632;-55
2021/10/26 07:52:31;;;;;;;;;;;23.70;44.20;;;;;;1560931;74;737;-57
2021/10/26 07:54:33;;;;;;;;;;;23.70;44.20;;;;;;1560531;74;1126;-56
2021/10/26 07:56:35;;;;;;;;;;;23.70;44.20;;;;;;1562599;74;662;-56
2021/10/26 07:58:39;;;;;;;;;;;23.80;44.20;;;;;;1575859;74;635;-57
2021/10/26 08:00:40;;;;;;;;;;;23.70;44.20;;;;;;1565364;74;1920;-55
2021/10/26 08:02:43;;;;;;;;;;;23.70;44.20;;;;;;1562960;74;771;-55
2021/10/26 08:04:49;;;;;;;;;;;23.70;44.20;;;;;;1557363;74;1123;-56
2021/10/26 08:06:50;;;;;;;;;;;23.70;44.30;;;;;;1568750;74;756;-56
2021/10/26 08:08:52;;;;;;;;;;;23.70;44.30;;;;;;1580324;74;703;-55
2021/10/26 08:10:55;;;;;;;;;;;23.60;44.20;;;;;;1568987;74;699;-55
2021/10/26 08:12:56;;;;;;;;;;;23.70;44.40;;;;;;1560546;72;221419;-73
2021/10/26 08:14:59;;;;;;;;;;;23.60;44.30;;;;;;1560908;76;662;-73
2021/10/26 08:17:01;;;;;;;;;;;23.60;44.40;;;;;;1560971;76;765;-72
2021/10/26 08:19:03;;;;;;;;;;;23.60;44.40;;;;;;1555606;76;1907;-73
2021/10/26 08:21:05;;;;;;;;;;;23.60;44.50;;;;;;1560768;76;698;-72
2021/10/26 08:23:07;;;;;;;;;;;23.50;44.60;;;;;;1546457;76;1191;-71
2021/10/26 08:25:19;;;;;;;;;;;23.50;44.60;;;;;;1535233;77;716;-71
2021/10/26 08:27:16;;;;;;;;;;;23.50;44.70;;;;;;1521725;77;1264;-70
2021/10/26 08:31:26;;;;;;;;;;;23.40;44.50;;;;;;1517857;77;858;-71
2021/10/26 08:35:31;;;;;;;;;;;23.40;44.60;;;;;;1514582;77;818;-71
2021/10/26 08:37:33;;;;;;;;;;;23.40;44.70;;;;;;1522443;77;741;-71
2021/10/26 08:39:38;;;;;;;;;;;23.40;44.70;;;;;;1519895;77;1941;-68
2021/10/26 08:41:41;;;;;;;;;;;23.30;44.70;;;;;;1527979;77;905;-68
2021/10/26 08:43:43;;;;;;;;;;;23.30;44.80;;;;;;1523432;76;1270;-71
2021/10/26 08:45:51;;;;;;;;;;;23.40;44.80;;;;;;1522382;77;743;-71
2021/10/26 08:47:49;;;;;;;;;;;23.40;44.80;;;;;;1520255;77;1721;-72
2021/10/26 08:49:52;;;;;;;;;;;23.30;44.90;;;;;;1522211;77;712;-71
2021/10/26 08:51:54;;;;;;;;;;;23.40;44.90;;;;;;1522426;77;706;-71
2021/10/26 08:53:57;;;;;;;;;;;23.30;44.90;;;;;;1522846;76;1200;-72
2021/10/26 08:56:00;;;;;;;;;;;23.30;45.00;;;;;;1522274;77;757;-71
2021/10/26 08:58:04;;;;;;;;;;;23.30;45.00;;;;;;1534879;77;730;-72
2021/10/26 09:00:08;;;;;;;;;;;23.40;45.00;;;;;;1526630;77;1920;-72
2021/10/26 09:02:10;;;;;;;;;;;23.30;45.00;;;;;;1523224;77;769;-72
2021/10/26 09:04:12;;;;;;;;;;;23.30;45.00;;;;;;1521718;77;1084;-71
2021/10/26 09:06:14;;;;;;;;;;;23.30;45.00;;;;;;1534121;77;761;-71
2021/10/26 09:08:18;;;;;;;;;;;23.30;45.00;;;;;;1526725;77;1129;-69
2021/10/26 09:10:20;;;;;;;;;;;23.40;45.00;;;;;;1530580;77;698;-72
2021/10/26 09:16:46;;;;;;;;;;;23.40;45.00;;;;;;1522525;77;671;-71
2021/10/26 09:18:50;;;;;;;;;;;23.40;45.00;;;;;;1522133;77;720;-71
2021/10/26 09:20:52;;;;;;;;;;;23.30;45.00;;;;;;1518203;77;1925;-72
2021/10/26 09:22:55;;;;;;;;;;;23.30;45.00;;;;;;1522317;76;1153;-72
2021/10/26 09:24:58;;;;;;;;;;;23.30;45.00;;;;;;1514933;77;679;-72
2021/10/26 09:27:03;;;;;;;;;;;23.40;45.00;;;;;;1523705;77;730;-71
2021/10/26 09:29:05;;;;;;;;;;;23.30;45.00;;;;;;1532729;77;688;-72
2021/10/26 09:31:08;;;;;;;;;;;23.40;45.00;;;;;;1522409;77;811;-71
2021/10/26 09:33:10;;;;;;;;;;;23.30;45.00;;;;;;1533447;77;1124;-71
2021/10/26 09:35:16;;;;;;;;;;;23.40;45.00;;;;;;1522131;77;666;-72
2021/10/26 09:37:18;;;;;;;;;;;23.40;45.00;;;;;;1524687;77;712;-70
2021/10/26 09:39:20;;;;;;;;;;;23.40;45.00;;;;;;1514867;77;1943;-72
2021/10/26 09:41:22;;;;;;;;;;;23.30;45.00;;;;;;1522275;77;763;-72
2021/10/26 09:43:26;;;;;;;;;;;23.30;45.10;;;;;;1524839;77;1159;-71
2021/10/26 09:45:28;;;;;;;;;;;23.30;45.00;;;;;;1523091;77;717;-72
2021/10/26 09:47:32;;;;;;;;;;;23.30;45.00;;;;;;1521544;77;798;-71
2021/10/26 09:49:38;;;;;;;;;;;23.30;45.00;;;;;;1522440;77;765;-71
2021/10/26 09:51:40;;;;;;;;;;;23.30;45.00;;;;;;1534646;77;827;-71
2021/10/26 09:53:42;;;;;;;;;;;23.30;45.00;;;;;;1529481;76;1136;-72
2021/10/26 09:55:48;;;;;;;;;;;23.30;45.00;;;;;;1526471;76;793;-72
2021/10/26 09:57:52;;;;;;;;;;;23.30;45.00;;;;;;1518455;77;704;-72
2021/10/26 09:59:54;;;;;;;;;;;23.30;45.00;;;;;;1525275;77;1922;-71
2021/10/26 10:01:56;;;;;;;;;;;23.30;45.00;;;;;;1533188;77;815;-72
2021/10/26 10:04:03;;;;;;;;;;;23.30;45.00;;;;;;1531720;76;1116;-72
2021/10/26 10:06:12;;;;;;;;;;;23.30;45.00;;;;;;1531919;77;1791;-72
2021/10/26 10:08:18;;;;;;;;;;;23.30;45.00;;;;;;1534066;77;1600;-72
2021/10/26 10:10:20;;;;;;;;;;;23.40;45.00;;;;;;1530644;77;707;-72
2021/10/26 10:12:23;;;;;;;;;;;23.30;45.00;;;;;;1533605;77;1162;-72
2021/10/26 10:14:25;;;;;;;;;;;23.30;45.00;;;;;;1516993;77;768;-71
2021/10/26 10:16:27;;;;;;;;;;;23.40;45.00;;;;;;1532258;77;778;-71
2021/10/26 10:18:29;;;;;;;;;;;23.30;45.00;;;;;;1516501;77;842;-71
2021/10/26 10:20:31;;;;;;;;;;;23.40;45.00;;;;;;1520479;77;1924;-72
2021/10/26 10:22:33;;;;;;;;;;;23.40;44.90;;;;;;1532869;76;1080;-71
2021/10/26 10:24:39;;;;;;;;;;;23.50;45.00;;;;;;1528730;77;784;-71
2021/10/26 10:26:41;;;;;;;;;;;23.50;45.10;;;;;;1527910;77;657;-71
2021/10/26 10:28:45;;;;;;;;;;;23.30;44.90;;;;;;1531977;77;778;-71
2021/10/26 10:30:47;;;;;;;;;;;23.40;45.00;;;;;;1536098;76;1820;-71
2021/10/26 10:32:50;;;;;;;;;;;23.50;45.00;;;;;;1528869;76;1149;-71
2021/10/26 10:34:52;;;;;;;;;;;23.40;44.80;;;;;;1531740;77;737;-72
2021/10/26 10:36:54;;;;;;;;;;;23.40;44.90;;;;;;1531803;77;719;-72
2021/10/26 10:38:57;;;;;;;;;;;23.40;44.90;;;;;;1531885;77;739;-71
2021/10/26 10:41:15;;;;;;;;;;;23.40;44.80;;;;;;1531655;77;1932;-68
2021/10/26 10:43:19;;;;;;;;;;;23.40;44.80;;;;;;1468604;78;1127;-68
2021/10/26 10:45:34;;;;;;;;;;;23.40;44.80;;;;;;1494976;77;1910;-71
2021/10/26 10:47:41;;;;;;;;;;;23.50;44.90;;;;;;1529894;77;1701;-71
2021/10/26 10:49:43;;;;;;;;;;;23.40;44.80;;;;;;1531782;77;720;-71
2021/10/26 10:52:08;;;;;;;;;;;23.50;44.90;;;;;;1530621;77;808;-68
2021/10/26 10:54:07;;;;;;;;;;;23.50;44.90;;;;;;1530765;77;1633;-71
2021/10/26 10:56:13;;;;;;;;;;;23.50;44.90;;;;;;1536508;77;814;-71
2021/10/26 10:58:28;;;;;;;;;;;23.50;44.90;;;;;;1532059;77;1725;-68
2021/10/26 11:00:34;;;;;;;;;;;23.50;44.90;;;;;;1532193;77;1950;-71
2021/10/26 11:02:37;;;;;;;;;;;23.50;44.90;;;;;;1528840;76;1173;-71
2021/10/26 11:04:38;;;;;;;;;;;23.40;44.70;;;;;;1531838;77;746;-71
2021/10/26 11:06:45;;;;;;;;;;;23.50;44.80;;;;;;1531835;77;785;-69
2021/10/26 11:08:47;;;;;;;;;;;23.50;44.80;;;;;;1531547;77;710;-72
2021/10/26 11:10:51;;;;;;;;;;;23.50;44.80;;;;;;1530189;77;778;-71
2021/10/26 11:12:53;;;;;;;;;;;23.50;44.80;;;;;;1531625;77;1174;-71
2021/10/26 11:14:56;;;;;;;;;;;23.50;44.80;;;;;;1536120;77;1029;-71
2021/10/26 11:16:59;;;;;;;;;;;23.50;44.80;;;;;;1531620;77;727;-71
2021/10/26 11:19:01;;;;;;;;;;;23.60;44.70;;;;;;1531381;77;801;-68
2021/10/26 11:21:04;;;;;;;;;;;23.60;44.70;;;;;;1535814;76;1940;-72
2021/10/26 11:23:10;;;;;;;;;;;23.60;44.70;;;;;;1530062;77;1714;-70
2021/10/26 11:25:26;;;;;;;;;;;23.50;44.70;;;;;;1530196;77;738;-71
2021/10/26 11:27:34;;;;;;;;;;;23.50;44.70;;;;;;1529983;77;1587;-71
2021/10/26 11:29:36;;;;;;;;;;;23.50;44.70;;;;;;1522462;77;608;-71
2021/10/26 11:31:43;;;;;;;;;;;23.50;44.60;;;;;;1522368;77;700;-72
2021/10/26 11:33:51;;;;;;;;;;;23.60;44.60;;;;;;1525526;76;1077;-71
2021/10/26 11:36:00;;;;;;;;;;;23.60;44.60;;;;;;1515319;77;707;-71
2021/10/26 11:37:57;;;;;;;;;;;23.60;44.60;;;;;;1529716;77;1597;-71
2021/10/26 11:40:00;;;;;;;;;;;23.60;44.60;;;;;;1532785;77;1943;-71
2021/10/26 11:42:04;;;;;;;;;;;23.60;44.60;;;;;;1532259;77;1878;-71
2021/10/26 11:44:07;;;;;;;;;;;23.60;44.50;;;;;;1533122;76;1184;-71
2021/10/26 11:46:23;;;;;;;;;;;23.60;44.60;;;;;;1532991;77;721;-71
2021/10/26 11:48:39;;;;;;;;;;;23.60;44.60;;;;;;1489648;77;1249;-71
2021/10/26 11:50:41;;;;;;;;;;;23.50;44.60;;;;;;1534971;77;897;-72
2021/10/26 11:52:43;;;;;;;;;;;23.50;44.70;;;;;;1534768;76;1179;-72
2021/10/26 11:54:51;;;;;;;;;;;23.60;44.60;;;;;;1530974;77;687;-72
2021/10/26 11:56:49;;;;;;;;;;;23.50;44.60;;;;;;1529939;77;1463;-70
2021/10/26 11:59:10;;;;;;;;;;;23.50;44.60;;;;;;1535024;77;683;-72
2021/10/26 12:01:12;;;;;;;;;;;23.50;44.70;;;;;;1530462;77;1947;-72
2021/10/26 12:03:14;;;;;;;;;;;23.50;44.70;;;;;;1526656;77;1136;-72
2021/10/26 12:05:19;;;;;;;;;;;23.50;44.70;;;;;;1522623;77;675;-70
2021/10/26 12:07:22;;;;;;;;;;;23.40;44.50;;;;;;1534121;77;705;-69
2021/10/26 12:09:25;;;;;;;;;;;23.50;44.70;;;;;;1522622;77;895;-72
2021/10/26 12:11:28;;;;;;;;;;;23.50;44.80;;;;;;1522262;77;731;-72
2021/10/26 12:13:30;;;;;;;;;;;23.40;44.70;;;;;;1522145;76;1738;-71
2021/10/26 12:15:32;;;;;;;;;;;23.40;44.70;;;;;;1521577;77;798;-71
2021/10/26 12:17:37;;;;;;;;;;;23.40;44.70;;;;;;1519504;77;836;-71
2021/10/26 12:19:39;;;;;;;;;;;23.40;44.70;;;;;;1522197;77;601;-71
2021/10/26 12:21:54;;;;;;;;;;;23.50;44.80;;;;;;1522416;77;1933;-69